createdAt,value
2023-02-03T00:04:09.471Z,2524
2023-02-03T00:34:10.575Z,1012
2023-02-03T01:04:10.804Z,1079
2023-02-03T01:34:14.236Z,1605
2023-02-03T02:04:15.055Z,868
2023-02-03T02:34:16.744Z,995
2023-02-03T03:04:17.695Z,1068
2023-02-03T03:34:18.360Z,1989
2023-02-03T04:04:19.920Z,1037
2023-02-03T04:34:20.102Z,7403
2023-02-03T05:04:22.002Z,8750
2023-02-03T05:34:22.473Z,8400
2023-02-03T06:04:24.729Z,3523
2023-02-03T06:34:28.728Z,885
2023-02-03T07:04:29.247Z,787
2023-02-03T07:34:29.453Z,893
2023-02-03T08:04:31.252Z,1010
2023-02-03T08:34:32.948Z,636
2023-02-03T09:04:34.011Z,598
2023-02-03T09:34:34.915Z,629
2023-02-03T10:04:36.277Z,808
2023-02-03T10:34:36.768Z,466
2023-02-03T11:04:38.869Z,406
2023-02-03T11:34:42.796Z,430
2023-02-03T12:04:44.853Z,1002
2023-02-03T12:34:46.646Z,415
2023-02-03T13:04:47.462Z,449
2023-02-03T13:34:48.959Z,422
2023-02-03T14:04:50.525Z,445
2023-02-03T14:34:51.409Z,424
2023-02-03T15:04:52.324Z,432
2023-02-03T15:34:54.190Z,442
2023-02-03T16:04:55.056Z,494
2023-02-03T16:34:56.569Z,564
2023-02-03T17:04:57.097Z,472
2023-02-03T17:34:58.205Z,444
2023-02-03T17:54:14.744Z,518
2023-02-03T17:54:16.822Z,526
2023-02-03T17:54:18.760Z,525
2023-02-03T17:54:20.812Z,525
2023-02-03T17:54:23.160Z,525
2023-02-03T17:54:26.982Z,523
2023-02-03T17:54:29.000Z,522
2023-02-03T17:54:31.099Z,523
2023-02-03T17:54:33.171Z,523
2023-02-03T17:54:35.507Z,525
2023-02-03T17:54:37.641Z,528
2023-02-03T17:54:39.565Z,528
2023-02-03T17:54:41.640Z,533
2023-02-03T17:54:43.818Z,536
2023-02-03T17:54:47.821Z,548
2023-02-03T17:54:49.929Z,548
2023-02-03T17:54:51.914Z,558
2023-02-03T18:34:25.803Z,424
2023-02-03T19:04:26.183Z,442
2023-02-03T19:34:26.715Z,598
2023-02-03T20:04:29.432Z,909
2023-02-03T20:34:29.538Z,491
2023-02-03T21:04:31.551Z,488
2023-02-03T21:34:33.406Z,3004
2023-02-03T22:04:34.728Z,478
2023-02-03T22:34:35.111Z,957
2023-02-03T23:04:37.098Z,1906
2023-02-03T23:34:37.937Z,2152
